Time;durP1;ratioP1;P1;durP2;ratioP2;P2;SDS_P1;SDS_P2;PMS_P1;PMS_P2;Temp;Humidity;BMP_temperature;BMP_pressure;BME280_temperature;BME280_humidity;BME280_pressure;Samples;Min_cycle;Max_cycle;Signal;HPM_P1;HPM_P2
2022/09/02 00:00:26;;;;;;;5.93;3.17;;;;;;;;;;6163922;23;20164;-89
2022/09/02 00:03:35;;;;;;;4.57;3.10;;;;;;;;;;6164495;23;20180;-87
2022/09/02 00:06:40;;;;;;;5.13;2.95;;;;;;;;;;6166020;23;20609;-87
2022/09/02 00:09:45;;;;;;;6.55;2.97;;;;;;;;;;6165374;23;20165;-85
2022/09/02 00:12:50;;;;;;;5.50;3.13;;;;;;;;;;6165457;23;20163;-88
2022/09/02 00:15:56;;;;;;;7.65;3.15;;;;;;;;;;6167242;23;20176;-87
2022/09/02 00:19:05;;;;;;;3.33;2.65;;;;;;;;;;6167322;23;20204;-86
2022/09/02 00:22:11;;;;;;;6.82;3.15;;;;;;;;;;6167082;23;20173;-88
2022/09/02 00:25:16;;;;;;;8.57;3.03;;;;;;;;;;6165278;23;20192;-89
2022/09/02 00:28:21;;;;;;;5.88;2.60;;;;;;;;;;6166925;23;20152;-88
2022/09/02 00:31:29;;;;;;;7.20;3.00;;;;;;;;;;6167225;23;20216;-87
2022/09/02 00:34:34;;;;;;;7.47;2.88;;;;;;;;;;6166398;23;20169;-88
2022/09/02 00:37:39;;;;;;;13.90;3.00;;;;;;;;;;6164431;23;20195;-87
2022/09/02 00:40:45;;;;;;;6.57;2.65;;;;;;;;;;6167713;23;20181;-86
2022/09/02 00:43:52;;;;;;;3.90;2.72;;;;;;;;;;6166005;23;20200;-88
2022/09/02 00:46:58;;;;;;;4.20;2.63;;;;;;;;;;6165827;23;20285;-87
2022/09/02 00:50:05;;;;;;;7.50;2.60;;;;;;;;;;6163727;23;20281;-86
2022/09/02 00:53:13;;;;;;;5.55;3.00;;;;;;;;;;6164410;23;20192;-87
2022/09/02 00:56:21;;;;;;;7.40;2.95;;;;;;;;;;6165586;23;20283;-88
2022/09/02 00:59:28;;;;;;;6.78;3.15;;;;;;;;;;6166204;23;20181;-87
2022/09/02 01:02:36;;;;;;;7.35;2.92;;;;;;;;;;6167598;23;20240;-88
2022/09/02 01:05:44;;;;;;;6.78;2.75;;;;;;;;;;6163579;23;20165;-89
2022/09/02 01:08:53;;;;;;;5.47;3.00;;;;;;;;;;6164956;23;20157;-89
2022/09/02 01:11:59;;;;;;;7.43;3.05;;;;;;;;;;6166392;23;20172;-88
2022/09/02 01:15:05;;;;;;;6.88;2.83;;;;;;;;;;6164940;23;20172;-88
2022/09/02 01:18:14;;;;;;;9.63;2.88;;;;;;;;;;6165428;23;20173;-88
2022/09/02 01:21:19;;;;;;;8.73;2.78;;;;;;;;;;6165102;23;20179;-90
2022/09/02 01:24:29;;;;;;;12.30;3.13;;;;;;;;;;6165150;23;20233;-88
2022/09/02 01:27:35;;;;;;;9.98;2.95;;;;;;;;;;6167547;23;20169;-88
2022/09/02 01:30:41;;;;;;;12.25;2.90;;;;;;;;;;6167091;23;20177;-91
2022/09/02 01:33:47;;;;;;;8.30;2.90;;;;;;;;;;6166803;23;20185;-89
2022/09/02 01:36:52;;;;;;;4.43;2.90;;;;;;;;;;6163824;23;20257;-88
2022/09/02 01:39:59;;;;;;;6.40;2.80;;;;;;;;;;6167435;23;20176;-86
2022/09/02 01:43:07;;;;;;;7.97;2.80;;;;;;;;;;6147897;23;20194;-88
2022/09/02 01:46:13;;;;;;;7.35;2.90;;;;;;;;;;6123074;23;20184;-88
2022/09/02 01:49:19;;;;;;;7.00;2.85;;;;;;;;;;6151685;23;20172;-88
2022/09/02 01:52:26;;;;;;;8.32;2.75;;;;;;;;;;6165625;23;20168;-87
2022/09/02 01:55:33;;;;;;;7.57;2.53;;;;;;;;;;6150118;23;20603;-88
2022/09/02 01:58:39;;;;;;;6.18;2.42;;;;;;;;;;6165325;23;20177;-87
2022/09/02 02:01:45;;;;;;;3.63;2.63;;;;;;;;;;6166036;23;20644;-89
2022/09/02 02:04:51;;;;;;;6.25;2.40;;;;;;;;;;6148758;23;20219;-86
2022/09/02 02:07:57;;;;;;;6.60;2.42;;;;;;;;;;6148820;23;20164;-86
2022/09/02 02:11:03;;;;;;;5.05;2.88;;;;;;;;;;6165505;23;20172;-89
2022/09/02 02:14:09;;;;;;;5.80;2.80;;;;;;;;;;6166447;23;20204;-87
2022/09/02 02:17:15;;;;;;;9.43;2.70;;;;;;;;;;6150094;23;20255;-89
2022/09/02 02:20:22;;;;;;;3.13;2.30;;;;;;;;;;6149630;23;20171;-87
2022/09/02 02:23:26;;;;;;;6.60;2.70;;;;;;;;;;6149143;23;20244;-88
2022/09/02 02:26:33;;;;;;;6.55;2.38;;;;;;;;;;6148089;23;20171;-89
2022/09/02 02:29:39;;;;;;;3.92;2.22;;;;;;;;;;6148346;23;20172;-87
2022/09/02 02:32:45;;;;;;;6.97;2.47;;;;;;;;;;6164703;23;20680;-90
2022/09/02 02:35:52;;;;;;;6.25;2.30;;;;;;;;;;6166075;23;20231;-87
2022/09/02 02:38:58;;;;;;;5.90;2.60;;;;;;;;;;6166810;23;20661;-88
2022/09/02 02:42:04;;;;;;;5.47;2.72;;;;;;;;;;6164321;23;20467;-87
2022/09/02 02:45:11;;;;;;;5.85;2.55;;;;;;;;;;6165779;23;20164;-88
2022/09/02 02:48:16;;;;;;;5.15;2.30;;;;;;;;;;6164820;23;20171;-89
2022/09/02 02:51:21;;;;;;;6.40;2.35;;;;;;;;;;6164705;23;20243;-88
2022/09/02 02:54:28;;;;;;;6.28;2.50;;;;;;;;;;6164869;23;20232;-88
2022/09/02 02:57:39;;;;;;;6.97;2.50;;;;;;;;;;6162654;23;20163;-88
2022/09/02 03:00:45;;;;;;;8.98;2.25;;;;;;;;;;6164267;23;20160;-88
2022/09/02 03:03:53;;;;;;;7.85;2.38;;;;;;;;;;6163922;23;20172;-89
2022/09/02 03:07:01;;;;;;;9.05;2.20;;;;;;;;;;6164463;23;20176;-87
2022/09/02 03:10:08;;;;;;;9.13;2.55;;;;;;;;;;6161419;23;20172;-88
2022/09/02 03:13:14;;;;;;;10.05;2.58;;;;;;;;;;6160915;23;20184;-88
2022/09/02 03:16:20;;;;;;;5.10;2.28;;;;;;;;;;6161365;23;20168;-91
2022/09/02 03:19:26;;;;;;;7.07;2.30;;;;;;;;;;6161252;23;20184;-87
2022/09/02 03:22:32;;;;;;;5.78;3.28;;;;;;;;;;6161107;23;20289;-87
2022/09/02 03:25:37;;;;;;;6.10;2.47;;;;;;;;;;6159676;23;20497;-88
2022/09/02 03:28:54;;;;;;;7.90;2.80;;;;;;;;;;6161743;23;20225;-86
2022/09/02 03:32:00;;;;;;;11.73;3.08;;;;;;;;;;6162525;23;20177;-88
2022/09/02 03:35:09;;;;;;;4.72;2.53;;;;;;;;;;6164961;23;20267;-86
2022/09/02 03:38:15;;;;;;;4.45;2.70;;;;;;;;;;6164758;23;20192;-87
2022/09/02 03:41:21;;;;;;;10.25;2.60;;;;;;;;;;6162452;23;20248;-87
2022/09/02 03:44:27;;;;;;;6.82;2.88;;;;;;;;;;6164256;23;20242;-89
2022/09/02 03:47:53;;;;;;;11.23;3.03;;;;;;;;;;6163640;23;20167;-87
2022/09/02 03:51:02;;;;;;;9.88;2.60;;;;;;;;;;6163727;23;20180;-87
2022/09/02 03:54:09;;;;;;;9.38;2.38;;;;;;;;;;6166241;23;20177;-88
2022/09/02 03:57:14;;;;;;;8.60;2.83;;;;;;;;;;6165208;23;20212;-87
2022/09/02 04:00:25;;;;;;;12.40;3.47;;;;;;;;;;6165193;23;20216;-87
2022/09/02 04:03:31;;;;;;;5.75;2.88;;;;;;;;;;6164816;23;20611;-87
2022/09/02 04:06:37;;;;;;;7.82;3.22;;;;;;;;;;6164003;23;20552;-89
2022/09/02 04:09:43;;;;;;;5.68;2.85;;;;;;;;;;6164559;23;20240;-86
2022/09/02 04:12:48;;;;;;;3.55;2.47;;;;;;;;;;6163574;23;20604;-86
2022/09/02 04:15:57;;;;;;;4.32;2.70;;;;;;;;;;6165059;23;20192;-88
2022/09/02 04:23:03;;;;;;;6.57;2.50;;;;;;;;;;6164894;23;20246;-90
2022/09/02 04:26:10;;;;;;;7.82;2.50;;;;;;;;;;6165414;23;20156;-87
2022/09/02 04:29:16;;;;;;;5.50;2.58;;;;;;;;;;6165517;23;20235;-91
2022/09/02 04:32:22;;;;;;;10.73;2.83;;;;;;;;;;6164949;23;20728;-87
2022/09/02 04:35:29;;;;;;;7.82;2.60;;;;;;;;;;6166305;23;20196;-89
2022/09/02 04:38:35;;;;;;;5.00;2.67;;;;;;;;;;6163777;23;20196;-89
2022/09/02 04:41:42;;;;;;;5.38;3.03;;;;;;;;;;6165788;23;20307;-87
2022/09/02 04:44:49;;;;;;;10.10;3.15;;;;;;;;;;6166259;23;20248;-87
2022/09/02 04:47:59;;;;;;;5.97;2.53;;;;;;;;;;6166314;23;20606;-87
2022/09/02 04:51:09;;;;;;;5.57;2.92;;;;;;;;;;6164568;23;20184;-85
2022/09/02 04:54:15;;;;;;;6.38;2.75;;;;;;;;;;6165021;23;20172;-88
2022/09/02 04:57:25;;;;;;;7.10;2.50;;;;;;;;;;6164635;23;20173;-89
2022/09/02 05:00:30;;;;;;;9.50;2.70;;;;;;;;;;6166549;23;20506;-89
2022/09/02 05:03:38;;;;;;;11.68;3.00;;;;;;;;;;6165353;23;20177;-89
2022/09/02 05:06:45;;;;;;;7.93;2.60;;;;;;;;;;6164140;23;20173;-87
2022/09/02 05:09:57;;;;;;;6.30;2.72;;;;;;;;;;6165199;23;20176;-88
2022/09/02 05:13:03;;;;;;;6.25;2.35;;;;;;;;;;6164504;23;20572;-88
2022/09/02 05:16:11;;;;;;;10.63;2.42;;;;;;;;;;6163908;23;20196;-87
2022/09/02 05:19:18;;;;;;;6.53;2.20;;;;;;;;;;6164944;23;20208;-87
2022/09/02 05:22:28;;;;;;;6.85;2.45;;;;;;;;;;6162925;23;20168;-88
2022/09/02 05:25:35;;;;;;;3.40;2.25;;;;;;;;;;6164886;23;20169;-88
2022/09/02 05:28:40;;;;;;;11.65;2.30;;;;;;;;;;6163894;23;20176;-87
2022/09/02 05:31:55;;;;;;;4.38;1.90;;;;;;;;;;6165574;23;20172;-87
2022/09/02 05:35:07;;;;;;;4.32;1.98;;;;;;;;;;6168500;23;20219;-88
2022/09/02 05:38:13;;;;;;;4.40;2.00;;;;;;;;;;6165090;23;20240;-88
2022/09/02 05:41:22;;;;;;;6.07;1.70;;;;;;;;;;6163409;23;20185;-86
2022/09/02 05:44:30;;;;;;;6.30;2.42;;;;;;;;;;6174739;23;20169;-87
2022/09/02 05:47:45;;;;;;;5.55;1.83;;;;;;;;;;6162159;23;20177;-88
2022/09/02 05:50:52;;;;;;;5.28;2.10;;;;;;;;;;6162600;23;20180;-90
2022/09/02 05:53:59;;;;;;;10.13;1.88;;;;;;;;;;6167443;23;20247;-88
2022/09/02 05:57:10;;;;;;;8.35;2.17;;;;;;;;;;6167983;23;20164;-90
2022/09/02 06:00:18;;;;;;;4.43;1.90;;;;;;;;;;6165519;23;20160;-88
2022/09/02 06:03:33;;;;;;;3.25;1.70;;;;;;;;;;6165036;23;20177;-89
2022/09/02 06:06:41;;;;;;;4.50;1.67;;;;;;;;;;6164732;23;20192;-88
2022/09/02 06:09:47;;;;;;;5.25;1.73;;;;;;;;;;6164182;23;20184;-89
2022/09/02 06:12:53;;;;;;;4.78;1.90;;;;;;;;;;6163311;23;20175;-89
2022/09/02 06:16:02;;;;;;;9.82;2.10;;;;;;;;;;6164759;23;20197;-88
2022/09/02 06:19:09;;;;;;;7.95;1.80;;;;;;;;;;6165878;23;20168;-88
2022/09/02 06:22:16;;;;;;;8.90;1.98;;;;;;;;;;6163017;23;20172;-89
2022/09/02 06:25:22;;;;;;;3.20;1.48;;;;;;;;;;6163128;23;20169;-89
2022/09/02 06:28:28;;;;;;;4.30;1.48;;;;;;;;;;6161801;23;20173;-92
2022/09/02 06:31:33;;;;;;;7.85;1.92;;;;;;;;;;6164230;23;20222;-89
2022/09/02 06:34:38;;;;;;;4.90;1.67;;;;;;;;;;6162215;23;20168;-88
2022/09/02 06:37:45;;;;;;;2.33;1.60;;;;;;;;;;6165053;23;20191;-89
2022/09/02 06:40:51;;;;;;;3.97;1.70;;;;;;;;;;6162231;23;20505;-90
2022/09/02 06:44:04;;;;;;;2.92;1.50;;;;;;;;;;6146038;23;20536;-88
2022/09/02 06:47:37;;;;;;;7.40;1.95;;;;;;;;;;6162896;23;20208;-88
2022/09/02 06:50:43;;;;;;;5.90;2.00;;;;;;;;;;6165737;23;20239;-88
2022/09/02 06:53:50;;;;;;;5.32;1.40;;;;;;;;;;6146154;23;20298;-90
2022/09/02 06:56:56;;;;;;;5.75;1.30;;;;;;;;;;6163570;23;20243;-90
2022/09/02 07:00:05;;;;;;;4.65;1.55;;;;;;;;;;6161908;23;20164;-90
2022/09/02 07:06:36;;;;;;;9.75;1.60;;;;;;;;;;6150260;23;20204;-87
2022/09/02 07:09:44;;;;;;;2.30;1.30;;;;;;;;;;6165285;23;20176;-89
2022/09/02 07:12:53;;;;;;;5.75;1.88;;;;;;;;;;6148798;23;20292;-90
2022/09/02 07:15:59;;;;;;;5.88;1.17;;;;;;;;;;6165945;23;20230;-89
2022/09/02 07:19:06;;;;;;;3.35;1.10;;;;;;;;;;6148154;23;20291;-88
2022/09/02 07:22:11;;;;;;;5.25;1.30;;;;;;;;;;6147540;23;20173;-89
2022/09/02 07:25:21;;;;;;;2.85;0.95;;;;;;;;;;6166426;23;20196;-89
2022/09/02 07:28:28;;;;;;;3.60;1.10;;;;;;;;;;6164544;23;20168;-87
2022/09/02 07:31:37;;;;;;;2.63;1.40;;;;;;;;;;6163436;23;20160;-87
2022/09/02 07:34:43;;;;;;;1.48;1.08;;;;;;;;;;6148338;23;20241;-91
2022/09/02 07:37:55;;;;;;;5.30;1.15;;;;;;;;;;6164736;23;20359;-89
2022/09/02 07:41:02;;;;;;;2.55;0.90;;;;;;;;;;6148799;23;20636;-89
2022/09/02 07:44:10;;;;;;;3.17;1.15;;;;;;;;;;6147512;23;20212;-88
2022/09/02 07:47:58;;;;;;;2.72;1.00;;;;;;;;;;6146362;23;20191;-88
2022/09/02 07:51:04;;;;;;;2.70;1.30;;;;;;;;;;6168055;23;20169;-90
2022/09/02 07:54:11;;;;;;;3.88;1.08;;;;;;;;;;6149866;23;20172;-89
2022/09/02 07:57:20;;;;;;;3.15;1.10;;;;;;;;;;6151264;23;20216;-89
2022/09/02 08:00:28;;;;;;;1.90;0.90;;;;;;;;;;6167189;23;20228;-89
2022/09/02 08:03:41;;;;;;;2.70;0.93;;;;;;;;;;6152388;23;20168;-89
2022/09/02 08:06:49;;;;;;;1.95;0.93;;;;;;;;;;6153506;23;20200;-89
2022/09/02 08:09:55;;;;;;;1.50;0.90;;;;;;;;;;6171885;23;20197;-91
2022/09/02 08:13:05;;;;;;;2.17;1.00;;;;;;;;;;6169035;23;20185;-90
2022/09/02 08:16:10;;;;;;;1.75;0.80;;;;;;;;;;6149128;23;20184;-90
2022/09/02 08:19:17;;;;;;;1.13;0.85;;;;;;;;;;6152630;23;20149;-89
2022/09/02 08:22:22;;;;;;;3.65;0.90;;;;;;;;;;6170091;23;20213;-92
2022/09/02 08:25:28;;;;;;;4.03;0.80;;;;;;;;;;6168767;23;20215;-90
2022/09/02 08:28:35;;;;;;;2.67;0.80;;;;;;;;;;6151236;23;20168;-88
2022/09/02 08:31:43;;;;;;;2.38;1.00;;;;;;;;;;6169490;23;20177;-89
2022/09/02 08:34:48;;;;;;;1.48;0.80;;;;;;;;;;6151815;23;20227;-89
2022/09/02 08:37:54;;;;;;;1.48;0.80;;;;;;;;;;6169187;23;20192;-90
2022/09/02 08:40:59;;;;;;;3.33;1.15;;;;;;;;;;6168676;23;20172;-91
2022/09/02 08:44:06;;;;;;;3.15;0.77;;;;;;;;;;6151388;23;20188;-89
2022/09/02 08:47:16;;;;;;;1.15;0.80;;;;;;;;;;6149205;23;20195;-89
2022/09/02 08:50:23;;;;;;;1.80;0.80;;;;;;;;;;6167405;23;20240;-87
2022/09/02 08:53:31;;;;;;;1.88;0.90;;;;;;;;;;6167287;23;20168;-92
2022/09/02 08:56:36;;;;;;;1.73;0.88;;;;;;;;;;6149365;23;20180;-91
2022/09/02 08:59:43;;;;;;;2.63;0.85;;;;;;;;;;6165108;23;20595;-88
2022/09/02 09:02:55;;;;;;;3.08;0.80;;;;;;;;;;6168588;23;20180;-90
2022/09/02 09:06:05;;;;;;;1.65;0.88;;;;;;;;;;6167412;23;20691;-90
2022/09/02 09:09:14;;;;;;;0.93;0.70;;;;;;;;;;6168800;23;20171;-89
2022/09/02 09:12:25;;;;;;;2.85;0.90;;;;;;;;;;6167507;23;20165;-89
2022/09/02 09:15:35;;;;;;;1.50;0.80;;;;;;;;;;6149953;23;20628;-89
2022/09/02 09:18:42;;;;;;;1.35;0.80;;;;;;;;;;6151070;23;20244;-90
2022/09/02 09:21:47;;;;;;;3.38;0.80;;;;;;;;;;6169801;23;20187;-90
2022/09/02 09:24:52;;;;;;;0.98;0.70;;;;;;;;;;6152920;23;20172;-91
2022/09/02 09:27:58;;;;;;;2.60;0.82;;;;;;;;;;6152712;23;20269;-90
2022/09/02 09:31:05;;;;;;;1.75;0.80;;;;;;;;;;6166635;23;20175;-90
2022/09/02 09:34:13;;;;;;;2.97;0.70;;;;;;;;;;6165667;23;20227;-91
2022/09/02 09:37:28;;;;;;;1.50;0.70;;;;;;;;;;6147833;23;20176;-90
2022/09/02 09:40:34;;;;;;;2.95;0.68;;;;;;;;;;6167317;23;20239;-91
2022/09/02 09:43:39;;;;;;;1.35;0.80;;;;;;;;;;6165444;23;20167;-89
2022/09/02 09:46:46;;;;;;;1.85;0.70;;;;;;;;;;6148940;23;20195;-89
2022/09/02 09:49:52;;;;;;;1.17;0.60;;;;;;;;;;6165111;23;20193;-92
2022/09/02 09:53:14;;;;;;;4.70;0.85;;;;;;;;;;6147280;23;20176;-90
2022/09/02 09:56:40;;;;;;;3.83;0.90;;;;;;;;;;6147115;23;20184;-89
2022/09/02 09:59:48;;;;;;;2.75;0.60;;;;;;;;;;6166082;23;20172;-89
2022/09/02 10:02:56;;;;;;;1.90;0.70;;;;;;;;;;6146842;23;20280;-92
2022/09/02 10:06:18;;;;;;;1.02;0.77;;;;;;;;;;6147897;23;20563;-91
2022/09/02 10:09:31;;;;;;;1.52;0.68;;;;;;;;;;6165221;23;20172;-90
2022/09/02 10:12:36;;;;;;;2.10;0.80;;;;;;;;;;6146456;23;20275;-90
2022/09/02 10:15:45;;;;;;;1.00;0.68;;;;;;;;;;6146219;23;20172;-89
2022/09/02 10:18:54;;;;;;;2.38;0.80;;;;;;;;;;6162838;23;20618;-88
2022/09/02 10:22:06;;;;;;;1.73;0.80;;;;;;;;;;6146926;23;20299;-88
2022/09/02 10:25:19;;;;;;;2.45;0.70;;;;;;;;;;6163799;23;20227;-90
2022/09/02 10:28:32;;;;;;;1.73;0.70;;;;;;;;;;6164862;23;20238;-90
2022/09/02 10:31:41;;;;;;;5.75;0.73;;;;;;;;;;6165892;23;20262;-88
2022/09/02 10:34:51;;;;;;;5.88;1.70;;;;;;;;;;6170685;23;20169;-90
2022/09/02 10:38:01;;;;;;;2.08;0.80;;;;;;;;;;6166779;23;20208;-90
2022/09/02 10:41:14;;;;;;;3.45;0.68;;;;;;;;;;6147959;23;20192;-91
2022/09/02 10:44:31;;;;;;;1.45;0.70;;;;;;;;;;6163680;23;20164;-90
2022/09/02 10:47:46;;;;;;;2.20;0.77;;;;;;;;;;6155944;23;20192;-91
2022/09/02 10:50:57;;;;;;;2.17;0.70;;;;;;;;;;6170142;23;20172;-90
2022/09/02 10:54:10;;;;;;;1.38;0.70;;;;;;;;;;6153134;23;20167;-90
2022/09/02 10:57:17;;;;;;;1.42;0.73;;;;;;;;;;6171064;23;20156;-90
2022/09/02 11:00:24;;;;;;;0.70;0.60;;;;;;;;;;6150893;23;20183;-91
2022/09/02 11:03:41;;;;;;;0.85;0.60;;;;;;;;;;6154198;23;20212;-91
2022/09/02 11:06:50;;;;;;;3.35;0.77;;;;;;;;;;6169144;23;20525;-88
2022/09/02 11:09:57;;;;;;;1.40;0.80;;;;;;;;;;6170678;23;20216;-91
2022/09/02 11:13:04;;;;;;;1.88;0.63;;;;;;;;;;6152679;23;20167;-89
2022/09/02 11:16:14;;;;;;;1.00;0.63;;;;;;;;;;6152476;23;20167;-89
2022/09/02 11:19:20;;;;;;;1.00;0.80;;;;;;;;;;6152352;23;20492;-90
2022/09/02 11:22:29;;;;;;;8.98;1.20;;;;;;;;;;6168245;23;20171;-90
2022/09/02 11:25:38;;;;;;;7.97;1.17;;;;;;;;;;6151623;23;20172;-85
2022/09/02 11:28:48;;;;;;;1.35;0.70;;;;;;;;;;6169339;23;20176;-90
2022/09/02 11:31:59;;;;;;;4.85;0.60;;;;;;;;;;6150272;23;20219;-91
2022/09/02 11:35:05;;;;;;;1.70;0.68;;;;;;;;;;6170771;23;20175;-89
2022/09/02 11:38:19;;;;;;;1.83;0.80;;;;;;;;;;6170301;23;20216;-88
2022/09/02 11:41:34;;;;;;;1.90;0.80;;;;;;;;;;6171019;23;20155;-90
2022/09/02 11:44:55;;;;;;;3.90;0.60;;;;;;;;;;6167188;23;20196;-89
2022/09/02 11:48:08;;;;;;;1.15;0.57;;;;;;;;;;6167860;23;20235;-88
2022/09/02 11:51:41;;;;;;;2.42;0.90;;;;;;;;;;6170075;23;20230;-91
2022/09/02 11:54:50;;;;;;;2.08;0.95;;;;;;;;;;6173262;23;20172;-90
2022/09/02 11:57:57;;;;;;;1.90;1.00;;;;;;;;;;6172334;23;20192;-89
2022/09/02 12:01:06;;;;;;;1.55;0.77;;;;;;;;;;6173599;23;20159;-90
2022/09/02 12:04:19;;;;;;;1.42;0.50;;;;;;;;;;6170520;23;20167;-88
2022/09/02 12:07:25;;;;;;;2.53;0.80;;;;;;;;;;6170300;23;20219;-91
2022/09/02 12:10:52;;;;;;;1.45;0.60;;;;;;;;;;6174688;23;20212;-89
2022/09/02 12:13:58;;;;;;;2.03;0.80;;;;;;;;;;6174334;23;20627;-89
2022/09/02 12:17:04;;;;;;;3.88;0.85;;;;;;;;;;6171953;23;20176;-89
2022/09/02 12:20:10;;;;;;;2.45;0.68;;;;;;;;;;6168869;23;20176;-87
2022/09/02 12:23:31;;;;;;;1.92;0.73;;;;;;;;;;6171887;23;20156;-90
2022/09/02 12:27:00;;;;;;;1.65;0.68;;;;;;;;;;6172695;23;20195;-87
2022/09/02 12:30:08;;;;;;;1.42;0.60;;;;;;;;;;6171111;23;20163;-89
2022/09/02 12:33:13;;;;;;;3.45;1.05;;;;;;;;;;6171846;23;20168;-88
2022/09/02 12:36:38;;;;;;;2.60;1.08;;;;;;;;;;6172259;23;20159;-90
2022/09/02 12:39:53;;;;;;;1.27;0.88;;;;;;;;;;6170698;23;20216;-90
2022/09/02 12:43:00;;;;;;;1.75;0.80;;;;;;;;;;6171125;23;20267;-89
2022/09/02 12:46:17;;;;;;;1.17;0.80;;;;;;;;;;6168341;23;20176;-88
2022/09/02 12:49:43;;;;;;;1.70;0.77;;;;;;;;;;6171221;23;20176;-88
2022/09/02 12:53:11;;;;;;;1.23;0.60;;;;;;;;;;6189315;23;20171;-89
2022/09/02 12:56:21;;;;;;;0.98;0.65;;;;;;;;;;6170942;23;20241;-90
2022/09/02 12:59:30;;;;;;;1.88;0.75;;;;;;;;;;6170503;23;20156;-89
2022/09/02 13:02:45;;;;;;;3.42;0.70;;;;;;;;;;6170836;23;20175;-88
2022/09/02 13:05:55;;;;;;;1.00;0.77;;;;;;;;;;6165591;23;20620;-87
2022/09/02 13:09:15;;;;;;;1.35;0.80;;;;;;;;;;6172127;23;20188;-88
2022/09/02 13:12:38;;;;;;;1.67;0.80;;;;;;;;;;6171062;23;20168;-87
2022/09/02 13:15:58;;;;;;;2.50;0.90;;;;;;;;;;6169573;23;20198;-88
2022/09/02 13:19:23;;;;;;;3.42;2.10;;;;;;;;;;6171830;23;20304;-90
2022/09/02 13:22:40;;;;;;;1.05;0.70;;;;;;;;;;6170386;23;20168;-89
2022/09/02 13:26:06;;;;;;;3.08;1.00;;;;;;;;;;6173467;23;20175;-87
2022/09/02 13:29:32;;;;;;;1.52;0.93;;;;;;;;;;6172685;23;20168;-88
2022/09/02 13:32:40;;;;;;;1.95;0.98;;;;;;;;;;6174567;23;20172;-88
2022/09/02 13:35:54;;;;;;;2.15;0.80;;;;;;;;;;6153944;23;20163;-88
2022/09/02 13:39:10;;;;;;;2.85;1.23;;;;;;;;;;6171649;23;20175;-89
2022/09/02 13:42:18;;;;;;;1.98;1.08;;;;;;;;;;6171624;23;20196;-89
2022/09/02 13:45:24;;;;;;;1.58;0.90;;;;;;;;;;6171310;23;20172;-90
2022/09/02 13:48:36;;;;;;;1.35;0.70;;;;;;;;;;6171096;23;20196;-89
2022/09/02 13:57:39;;;;;;;2.33;0.80;;;;;;;;;;6221732;22;20214;-88
2022/09/02 14:00:44;;;;;;;1.70;0.90;;;;;;;;;;6211086;23;20253;-89
2022/09/02 14:03:50;;;;;;;4.45;1.30;;;;;;;;;;6212855;23;20514;-86
2022/09/02 14:06:55;;;;;;;1.55;0.73;;;;;;;;;;6209189;23;20626;-85
2022/09/02 14:10:02;;;;;;;4.50;2.00;;;;;;;;;;6209016;23;20285;-89
2022/09/02 14:13:11;;;;;;;2.20;1.00;;;;;;;;;;6209374;23;20179;-89
2022/09/02 14:16:47;;;;;;;1.80;1.10;;;;;;;;;;6213311;23;20617;-90
2022/09/02 14:34:34;;;;;;;2.63;1.13;;;;;;;;;;6192674;22;20218;-88
2022/09/02 14:37:51;;;;;;;1.77;1.02;;;;;;;;;;6211259;23;20166;-90
2022/09/02 14:41:01;;;;;;;1.75;0.90;;;;;;;;;;6208692;23;20234;-88
2022/09/02 14:44:10;;;;;;;1.80;1.00;;;;;;;;;;6210755;23;20183;-91
2022/09/02 14:47:16;;;;;;;4.13;1.02;;;;;;;;;;6209488;23;20240;-90
2022/09/02 14:50:24;;;;;;;2.30;1.13;;;;;;;;;;6209798;23;20166;-90
2022/09/02 14:53:31;;;;;;;3.10;0.82;;;;;;;;;;6233524;23;20195;-88
2022/09/02 14:56:44;;;;;;;5.70;1.10;;;;;;;;;;6230413;23;20207;-90
2022/09/02 14:59:51;;;;;;;2.17;1.20;;;;;;;;;;6212740;23;20175;-89
2022/09/02 15:02:59;;;;;;;5.72;1.73;;;;;;;;;;6210394;23;20220;-92
2022/09/02 15:06:05;;;;;;;1.73;0.88;;;;;;;;;;6228207;23;20170;-90
2022/09/02 15:09:11;;;;;;;2.97;1.13;;;;;;;;;;6209224;23;20214;-89
2022/09/02 15:12:18;;;;;;;2.28;1.20;;;;;;;;;;6209927;23;20167;-87
2022/09/02 15:15:25;;;;;;;1.50;0.80;;;;;;;;;;6206802;23;20205;-86
2022/09/02 15:18:30;;;;;;;2.47;0.70;;;;;;;;;;6209544;23;20171;-88
2022/09/02 15:21:39;;;;;;;1.60;1.10;;;;;;;;;;6208781;23;20175;-88
2022/09/02 15:24:45;;;;;;;3.50;0.90;;;;;;;;;;6208115;23;20279;-89
2022/09/02 15:27:50;;;;;;;1.70;0.80;;;;;;;;;;6209282;23;20226;-89
2022/09/02 15:30:58;;;;;;;5.75;1.00;;;;;;;;;;6208086;23;20171;-89
2022/09/02 15:34:03;;;;;;;2.20;0.90;;;;;;;;;;6210134;23;20175;-88
2022/09/02 15:37:10;;;;;;;1.67;1.00;;;;;;;;;;6216521;23;20228;-89
2022/09/02 15:40:15;;;;;;;4.22;1.02;;;;;;;;;;6208576;23;20167;-88
2022/09/02 15:43:21;;;;;;;1.83;0.93;;;;;;;;;;6208872;23;20167;-90
2022/09/02 15:46:27;;;;;;;3.90;0.90;;;;;;;;;;6206240;23;20502;-88
2022/09/02 15:49:32;;;;;;;4.32;1.10;;;;;;;;;;6208248;23;20154;-87
2022/09/02 15:52:38;;;;;;;4.13;1.17;;;;;;;;;;6207377;23;20166;-88
2022/09/02 15:55:43;;;;;;;4.50;1.15;;;;;;;;;;6207030;23;20213;-90
2022/09/02 15:58:56;;;;;;;3.53;1.10;;;;;;;;;;6206743;23;20179;-88
2022/09/02 16:02:02;;;;;;;3.35;0.90;;;;;;;;;;6209023;23;20171;-88
2022/09/02 16:05:12;;;;;;;3.08;1.00;;;;;;;;;;6207185;23;20174;-91
2022/09/02 16:08:19;;;;;;;1.83;0.93;;;;;;;;;;6208981;23;20199;-89
2022/09/02 16:11:24;;;;;;;3.13;0.90;;;;;;;;;;6210774;23;20166;-89
2022/09/02 16:14:30;;;;;;;2.88;1.17;;;;;;;;;;6209531;23;20214;-88
2022/09/02 16:17:36;;;;;;;3.67;1.30;;;;;;;;;;6213070;23;20179;-88
2022/09/02 16:20:41;;;;;;;3.28;0.90;;;;;;;;;;6209208;23;20174;-87
2022/09/02 16:23:48;;;;;;;1.75;0.95;;;;;;;;;;6209385;23;20211;-87
2022/09/02 16:26:53;;;;;;;1.63;1.02;;;;;;;;;;6210031;23;20167;-89
2022/09/02 16:29:58;;;;;;;2.22;1.17;;;;;;;;;;6207254;23;20167;-89
2022/09/02 16:33:04;;;;;;;4.00;0.90;;;;;;;;;;6207276;23;20301;-89
2022/09/02 16:36:09;;;;;;;6.03;1.42;;;;;;;;;;6197486;23;20303;-89
2022/09/02 16:39:16;;;;;;;2.35;1.05;;;;;;;;;;6197100;23;20160;-88
2022/09/02 16:42:21;;;;;;;3.90;0.88;;;;;;;;;;6197747;23;20171;-90
2022/09/02 16:45:28;;;;;;;3.47;1.50;;;;;;;;;;6195754;23;20176;-86
2022/09/02 16:48:38;;;;;;;3.75;1.75;;;;;;;;;;6199346;23;20248;-89
2022/09/02 16:51:44;;;;;;;2.13;1.20;;;;;;;;;;6195318;23;20172;-88
2022/09/02 16:54:50;;;;;;;2.47;1.20;;;;;;;;;;6199217;23;20248;-88
2022/09/02 16:57:55;;;;;;;2.75;1.60;;;;;;;;;;6198973;23;20167;-87
2022/09/02 17:01:05;;;;;;;2.35;1.33;;;;;;;;;;6198753;23;20247;-88
2022/09/02 17:04:12;;;;;;;2.95;1.10;;;;;;;;;;6200368;23;20151;-89
2022/09/02 17:07:18;;;;;;;4.30;1.40;;;;;;;;;;6198368;23;20655;-87
2022/09/02 17:10:24;;;;;;;11.10;3.60;;;;;;;;;;6202421;23;20175;-89
2022/09/02 17:13:33;;;;;;;1.83;1.10;;;;;;;;;;6196495;23;20171;-88
2022/09/02 17:16:40;;;;;;;3.15;1.17;;;;;;;;;;6197397;23;20172;-88
2022/09/02 17:19:45;;;;;;;2.80;1.40;;;;;;;;;;6196436;23;20215;-88
2022/09/02 17:22:51;;;;;;;4.43;1.55;;;;;;;;;;6197080;23;20187;-89
2022/09/02 17:25:59;;;;;;;3.72;1.40;;;;;;;;;;6196895;23;20176;-88
2022/09/02 17:29:08;;;;;;;4.93;1.35;;;;;;;;;;6198917;23;20195;-88
2022/09/02 17:32:13;;;;;;;3.55;1.15;;;;;;;;;;6197142;23;20163;-87
2022/09/02 17:35:19;;;;;;;9.50;1.40;;;;;;;;;;6207840;23;20241;-86
2022/09/02 17:38:24;;;;;;;2.15;1.20;;;;;;;;;;6210271;23;20217;-90
2022/09/02 17:44:54;;;;;;;4.05;1.63;;;;;;;;;;6210774;23;20194;-89
2022/09/02 17:48:14;;;;;;;2.42;1.40;;;;;;;;;;6207430;23;20258;-88
2022/09/02 17:51:19;;;;;;;5.03;1.45;;;;;;;;;;6209602;23;20719;-89
2022/09/02 17:54:24;;;;;;;6.03;2.13;;;;;;;;;;6207959;23;20168;-87
2022/09/02 17:57:34;;;;;;;4.82;1.70;;;;;;;;;;6210387;23;20215;-88
2022/09/02 18:00:44;;;;;;;3.55;1.80;;;;;;;;;;6208851;23;20171;-88
2022/09/02 18:04:00;;;;;;;11.65;3.17;;;;;;;;;;6209412;23;20183;-89
2022/09/02 18:07:14;;;;;;;6.78;1.63;;;;;;;;;;6234665;23;20172;-89
2022/09/02 18:10:21;;;;;;;2.38;1.40;;;;;;;;;;6215423;23;20171;-88
2022/09/02 18:13:32;;;;;;;4.78;1.83;;;;;;;;;;6213182;23;20172;-88
2022/09/02 18:16:40;;;;;;;7.70;1.95;;;;;;;;;;6209243;23;20238;-87
2022/09/02 18:19:50;;;;;;;3.70;1.77;;;;;;;;;;6229490;23;20171;-89
2022/09/02 18:23:08;;;;;;;4.13;2.00;;;;;;;;;;6210604;23;20607;-88
2022/09/02 18:26:16;;;;;;;4.97;1.80;;;;;;;;;;6209234;23;20167;-88
2022/09/02 18:29:32;;;;;;;4.25;1.60;;;;;;;;;;6208801;23;20306;-87
2022/09/02 18:32:57;;;;;;;4.07;1.58;;;;;;;;;;6209389;23;20174;-87
2022/09/02 18:36:09;;;;;;;9.05;1.90;;;;;;;;;;6196598;23;20188;-88
2022/09/02 18:39:28;;;;;;;2.53;1.65;;;;;;;;;;6196321;23;20164;-88
2022/09/02 18:42:39;;;;;;;4.25;2.15;;;;;;;;;;6195385;23;20176;-88
2022/09/02 18:45:48;;;;;;;5.38;1.85;;;;;;;;;;6195743;23;20179;-87
2022/09/02 18:48:56;;;;;;;3.75;1.63;;;;;;;;;;6195647;23;20324;-85
2022/09/02 18:52:03;;;;;;;4.30;2.10;;;;;;;;;;6197211;23;20171;-88
2022/09/02 18:55:10;;;;;;;4.50;1.90;;;;;;;;;;6195142;23;20224;-88
2022/09/02 18:58:32;;;;;;;5.13;1.50;;;;;;;;;;6193784;23;20167;-89
2022/09/02 19:01:43;;;;;;;7.70;1.90;;;;;;;;;;6195886;23;20167;-87
2022/09/02 19:04:49;;;;;;;6.47;1.58;;;;;;;;;;6195482;23;20163;-88
2022/09/02 19:16:44;;;;;;;4.57;1.70;;;;;;;;;;6197593;23;20217;-88
2022/09/02 19:19:49;;;;;;;6.55;1.90;;;;;;;;;;6177989;23;20183;-89
2022/09/02 19:22:56;;;;;;;4.60;1.77;;;;;;;;;;6175544;23;20268;-89
2022/09/02 19:26:01;;;;;;;15.65;8.60;;;;;;;;;;6176141;23;20250;-88
2022/09/02 19:29:06;;;;;;;8.75;3.22;;;;;;;;;;6175193;23;20270;-87
2022/09/02 19:32:13;;;;;;;7.03;2.30;;;;;;;;;;6173175;23;20171;-86